Time;durP1;ratioP1;P1;durP2;ratioP2;P2;SDS_P1;SDS_P2;PMS_P1;PMS_P2;Temp;Humidity;BMP_temperature;BMP_pressure;BME280_temperature;BME280_humidity;BME280_pressure;Samples;Min_cycle;Max_cycle;Signal;HPM_P1;HPM_P2
2022/03/16 00:00:04;;;;;;;53.70;30.77;;;;;;;;;;2081091;28;20041;-65
2022/03/16 00:01:23;;;;;;;48.55;30.33;;;;;;;;;;2076469;28;20041;-63
2022/03/16 00:02:42;;;;;;;49.65;29.95;;;;;;;;;;2075666;28;20033;-64
2022/03/16 00:04:01;;;;;;;48.28;29.48;;;;;;;;;;2077631;28;20045;-65
2022/03/16 00:05:20;;;;;;;51.97;29.65;;;;;;;;;;2080467;28;20034;-64
2022/03/16 00:06:39;;;;;;;52.60;29.05;;;;;;;;;;2080347;28;20490;-65
2022/03/16 00:07:58;;;;;;;52.70;29.00;;;;;;;;;;2079208;28;20460;-64
2022/03/16 00:09:17;;;;;;;50.75;29.50;;;;;;;;;;2079983;28;20017;-64
2022/03/16 00:10:36;;;;;;;50.97;29.63;;;;;;;;;;2079538;28;20476;-64
2022/03/16 00:11:55;;;;;;;46.63;28.58;;;;;;;;;;2079932;28;20041;-64
2022/03/16 00:13:14;;;;;;;47.80;28.90;;;;;;;;;;2081041;28;20400;-64
2022/03/16 00:14:33;;;;;;;47.00;29.42;;;;;;;;;;2080481;28;20029;-64
2022/03/16 00:15:52;;;;;;;48.72;29.83;;;;;;;;;;2079252;28;20034;-64
2022/03/16 00:17:12;;;;;;;47.30;28.80;;;;;;;;;;2079124;28;20026;-64
2022/03/16 00:18:31;;;;;;;46.35;28.50;;;;;;;;;;2078905;28;20034;-65
2022/03/16 00:19:50;;;;;;;49.40;29.90;;;;;;;;;;2079755;28;20492;-65
2022/03/16 00:21:08;;;;;;;45.85;28.55;;;;;;;;;;2081585;28;20045;-65
2022/03/16 00:22:27;;;;;;;45.72;28.33;;;;;;;;;;2077902;28;20033;-64
2022/03/16 00:23:47;;;;;;;49.17;28.10;;;;;;;;;;2078201;28;20026;-65
2022/03/16 00:25:07;;;;;;;45.90;28.27;;;;;;;;;;2080183;28;20025;-65
2022/03/16 00:26:25;;;;;;;49.35;28.00;;;;;;;;;;2079590;28;20099;-65
2022/03/16 00:27:45;;;;;;;43.85;27.83;;;;;;;;;;2078778;28;20029;-65
2022/03/16 00:29:04;;;;;;;47.30;27.70;;;;;;;;;;2078662;28;20066;-64
2022/03/16 00:30:23;;;;;;;46.83;27.92;;;;;;;;;;2080955;28;20034;-64
2022/03/16 00:31:42;;;;;;;46.08;28.42;;;;;;;;;;2081341;28;20073;-65
2022/03/16 00:33:02;;;;;;;47.70;27.52;;;;;;;;;;2077546;28;20049;-65
2022/03/16 00:34:21;;;;;;;44.90;27.85;;;;;;;;;;2080947;28;20073;-65
2022/03/16 00:35:39;;;;;;;45.35;27.85;;;;;;;;;;2080154;28;20030;-64
2022/03/16 00:36:58;;;;;;;47.92;28.35;;;;;;;;;;2078491;28;20061;-65
2022/03/16 00:38:17;;;;;;;48.70;29.15;;;;;;;;;;2079447;28;20508;-63
2022/03/16 00:39:36;;;;;;;42.08;26.77;;;;;;;;;;2079124;28;20033;-64
2022/03/16 00:40:55;;;;;;;46.30;27.60;;;;;;;;;;2080930;28;20429;-64
2022/03/16 00:42:14;;;;;;;43.78;27.00;;;;;;;;;;2077638;28;20042;-64
2022/03/16 00:43:33;;;;;;;43.95;27.45;;;;;;;;;;2077976;28;20029;-64
2022/03/16 00:44:52;;;;;;;46.50;26.58;;;;;;;;;;2080367;28;20030;-64
2022/03/16 00:46:11;;;;;;;46.80;27.23;;;;;;;;;;2079908;28;20507;-64
2022/03/16 00:47:30;;;;;;;43.53;25.92;;;;;;;;;;2080052;28;20033;-65
2022/03/16 00:48:48;;;;;;;41.17;26.10;;;;;;;;;;2079705;28;20057;-64
2022/03/16 00:50:07;;;;;;;44.00;26.50;;;;;;;;;;2080216;28;20037;-64
2022/03/16 00:51:26;;;;;;;45.33;26.15;;;;;;;;;;2079167;28;21344;-64
2022/03/16 00:52:45;;;;;;;45.42;26.67;;;;;;;;;;2078201;28;20029;-64
2022/03/16 00:54:04;;;;;;;50.50;27.77;;;;;;;;;;2077716;28;20029;-64
2022/03/16 00:55:24;;;;;;;46.15;27.13;;;;;;;;;;2079310;28;20025;-64
2022/03/16 00:56:42;;;;;;;43.95;27.58;;;;;;;;;;2080790;28;20100;-64
2022/03/16 00:58:02;;;;;;;46.75;28.17;;;;;;;;;;2078824;28;20026;-64
2022/03/16 00:59:21;;;;;;;45.20;26.67;;;;;;;;;;2079559;28;20033;-64
2022/03/16 01:00:40;;;;;;;44.78;26.63;;;;;;;;;;2075938;28;20078;-64
2022/03/16 01:01:59;;;;;;;46.03;27.23;;;;;;;;;;2079127;28;20029;-64
2022/03/16 01:03:18;;;;;;;46.72;26.85;;;;;;;;;;2078900;28;20041;-64
2022/03/16 01:04:38;;;;;;;42.85;26.33;;;;;;;;;;2078340;28;20069;-64
2022/03/16 01:05:56;;;;;;;45.30;27.33;;;;;;;;;;2078730;28;20026;-64
2022/03/16 01:07:15;;;;;;;46.80;27.48;;;;;;;;;;2079553;28;20712;-62
2022/03/16 01:08:34;;;;;;;47.58;27.00;;;;;;;;;;2078546;28;20029;-64
2022/03/16 01:09:53;;;;;;;43.72;27.27;;;;;;;;;;2079784;28;20112;-64
2022/03/16 01:11:12;;;;;;;43.92;26.55;;;;;;;;;;2078869;28;20030;-64
2022/03/16 01:12:31;;;;;;;45.45;26.70;;;;;;;;;;2078095;28;20034;-64
2022/03/16 01:13:50;;;;;;;46.20;26.38;;;;;;;;;;2078675;28;20030;-63
2022/03/16 01:15:09;;;;;;;47.60;27.42;;;;;;;;;;2080109;28;20239;-64
2022/03/16 01:16:29;;;;;;;43.63;27.17;;;;;;;;;;2081050;28;20025;-64
2022/03/16 01:17:47;;;;;;;43.53;25.98;;;;;;;;;;2080013;28;20030;-64
2022/03/16 01:19:07;;;;;;;47.38;26.80;;;;;;;;;;2078066;28;20037;-64
2022/03/16 01:20:26;;;;;;;46.85;27.35;;;;;;;;;;2079629;28;20042;-64
2022/03/16 01:21:45;;;;;;;44.63;26.95;;;;;;;;;;2079184;28;20276;-63
2022/03/16 01:23:04;;;;;;;45.50;26.52;;;;;;;;;;2079193;28;20029;-64
2022/03/16 01:24:23;;;;;;;45.88;27.27;;;;;;;;;;2076712;28;20093;-65
2022/03/16 01:25:42;;;;;;;45.45;27.13;;;;;;;;;;2078704;28;20021;-64
2022/03/16 01:27:01;;;;;;;49.33;27.83;;;;;;;;;;2077904;28;20026;-64
2022/03/16 01:28:20;;;;;;;46.75;26.40;;;;;;;;;;2077507;28;20022;-63
2022/03/16 01:29:39;;;;;;;47.40;25.25;;;;;;;;;;2079601;28;20026;-64
2022/03/16 01:31:00;;;;;;;47.65;28.33;;;;;;;;;;2079793;28;20053;-64
2022/03/16 01:32:19;;;;;;;44.35;26.45;;;;;;;;;;2078815;28;20026;-64
2022/03/16 01:33:37;;;;;;;48.60;29.52;;;;;;;;;;2079391;28;20435;-63
2022/03/16 01:35:00;;;;;;;48.53;29.15;;;;;;;;;;2079483;28;20037;-63
2022/03/16 01:36:19;;;;;;;53.42;28.50;;;;;;;;;;2079799;28;20017;-63
2022/03/16 01:37:38;;;;;;;48.58;29.60;;;;;;;;;;2080436;28;20356;-63
2022/03/16 01:38:57;;;;;;;47.05;29.35;;;;;;;;;;2080381;28;20033;-63
2022/03/16 01:40:16;;;;;;;49.05;29.00;;;;;;;;;;2075360;28;20050;-62
2022/03/16 01:41:35;;;;;;;53.28;29.92;;;;;;;;;;2080813;28;20030;-63
2022/03/16 01:42:55;;;;;;;50.70;29.52;;;;;;;;;;2081939;28;20025;-63
2022/03/16 01:44:13;;;;;;;49.10;28.73;;;;;;;;;;2080005;28;20034;-63
2022/03/16 01:45:32;;;;;;;53.72;30.23;;;;;;;;;;2079872;28;20496;-63
2022/03/16 01:46:51;;;;;;;48.47;30.05;;;;;;;;;;2080281;28;20496;-63
2022/03/16 01:48:10;;;;;;;52.80;30.25;;;;;;;;;;2081766;28;20034;-64
2022/03/16 01:49:29;;;;;;;52.58;31.00;;;;;;;;;;2080823;28;20029;-63
2022/03/16 01:50:48;;;;;;;53.55;30.20;;;;;;;;;;2079952;28;20388;-63
2022/03/16 01:52:07;;;;;;;56.90;31.70;;;;;;;;;;2079837;28;20034;-63
2022/03/16 01:53:27;;;;;;;51.88;29.60;;;;;;;;;;2080026;28;20507;-63
2022/03/16 01:54:46;;;;;;;52.47;30.92;;;;;;;;;;2080395;28;20037;-63
2022/03/16 01:56:05;;;;;;;50.60;29.58;;;;;;;;;;2076708;28;20512;-62
2022/03/16 01:57:24;;;;;;;55.25;31.55;;;;;;;;;;2081550;28;20041;-63
2022/03/16 01:58:43;;;;;;;51.83;30.15;;;;;;;;;;2081527;28;20033;-64
2022/03/16 02:00:06;;;;;;;55.88;30.73;;;;;;;;;;2081182;28;20033;-63
2022/03/16 02:01:25;;;;;;;;;;;;;;;;;;2082820;28;20503;-63
2022/03/16 02:02:46;;;;;;;55.40;31.00;;;;;;;;;;2080415;28;20425;-63
2022/03/16 02:04:04;;;;;;;58.33;31.92;;;;;;;;;;2079361;28;20029;-62
2022/03/16 02:05:23;;;;;;;49.22;30.40;;;;;;;;;;2082257;28;20041;-63
2022/03/16 02:06:43;;;;;;;55.58;29.65;;;;;;;;;;2080734;28;20034;-63
2022/03/16 02:08:04;;;;;;;53.47;31.85;;;;;;;;;;2081430;28;20500;-66
2022/03/16 02:09:24;;;;;;;53.20;30.40;;;;;;;;;;2079705;28;20029;-63
2022/03/16 02:10:43;;;;;;;51.97;29.75;;;;;;;;;;2080496;28;20021;-63
2022/03/16 02:12:02;;;;;;;52.22;31.00;;;;;;;;;;2080352;28;20029;-63
2022/03/16 02:13:21;;;;;;;56.15;31.73;;;;;;;;;;2080915;28;20021;-63
2022/03/16 02:14:40;;;;;;;53.85;30.63;;;;;;;;;;2078677;28;20038;-63
2022/03/16 02:15:59;;;;;;;54.58;29.98;;;;;;;;;;2081195;28;20030;-63
2022/03/16 02:17:18;;;;;;;51.78;30.88;;;;;;;;;;2080876;28;20033;-63
2022/03/16 02:18:37;;;;;;;56.97;31.85;;;;;;;;;;2079975;28;20025;-63
2022/03/16 02:19:56;;;;;;;57.67;31.02;;;;;;;;;;2080372;28;20030;-63
2022/03/16 02:21:15;;;;;;;55.53;31.55;;;;;;;;;;2080415;28;20026;-65
2022/03/16 02:22:53;;;;;;;57.20;31.92;;;;;;;;;;2079593;28;20160;-63
2022/03/16 02:24:12;;;;;;;52.88;31.08;;;;;;;;;;2079747;28;20033;-63
2022/03/16 02:25:31;;;;;;;58.78;32.03;;;;;;;;;;2080687;28;20037;-63
2022/03/16 02:26:50;;;;;;;57.20;32.15;;;;;;;;;;2081493;28;20060;-63
2022/03/16 02:28:09;;;;;;;56.30;32.90;;;;;;;;;;2081287;28;20484;-62
2022/03/16 02:29:29;;;;;;;66.68;32.15;;;;;;;;;;2081487;28;20029;-62
2022/03/16 02:30:48;;;;;;;59.10;30.52;;;;;;;;;;2081343;28;20034;-63
2022/03/16 02:32:08;;;;;;;60.85;32.85;;;;;;;;;;2077957;28;20054;-63
2022/03/16 02:33:26;;;;;;;57.95;30.75;;;;;;;;;;2081271;28;20030;-63
2022/03/16 02:34:45;;;;;;;54.28;31.27;;;;;;;;;;2080059;28;20037;-61
2022/03/16 02:36:04;;;;;;;56.72;32.03;;;;;;;;;;2081003;28;20511;-63
2022/03/16 02:37:23;;;;;;;59.40;32.95;;;;;;;;;;2081205;28;20049;-63
2022/03/16 02:38:42;;;;;;;63.08;33.67;;;;;;;;;;2079680;28;20034;-63
2022/03/16 02:40:01;;;;;;;63.70;35.38;;;;;;;;;;2080492;28;20041;-63
2022/03/16 02:41:20;;;;;;;62.22;34.65;;;;;;;;;;2080629;28;20034;-62
2022/03/16 02:42:39;;;;;;;63.08;34.38;;;;;;;;;;2080644;28;20523;-62
2022/03/16 02:43:58;;;;;;;64.40;33.05;;;;;;;;;;2080074;28;20034;-63
2022/03/16 02:45:18;;;;;;;60.30;33.08;;;;;;;;;;2079052;28;20450;-62
2022/03/16 02:46:37;;;;;;;60.90;33.33;;;;;;;;;;2080881;28;20033;-62
2022/03/16 02:47:56;;;;;;;59.28;33.33;;;;;;;;;;2080889;28;20026;-63
2022/03/16 02:49:17;;;;;;;60.42;32.47;;;;;;;;;;2080151;28;20108;-63
2022/03/16 02:50:36;;;;;;;63.47;33.97;;;;;;;;;;2079650;28;20396;-63
2022/03/16 02:51:55;;;;;;;58.63;31.98;;;;;;;;;;2078345;28;20030;-63
2022/03/16 02:53:17;;;;;;;57.63;32.45;;;;;;;;;;2079309;28;20116;-63
2022/03/16 02:54:36;;;;;;;58.45;30.95;;;;;;;;;;2078937;28;20021;-62
2022/03/16 02:55:54;;;;;;;58.35;32.17;;;;;;;;;;2076175;28;20033;-63
2022/03/16 02:57:16;;;;;;;67.65;32.95;;;;;;;;;;2080954;28;20030;-63
2022/03/16 02:58:34;;;;;;;70.68;33.35;;;;;;;;;;2078676;28;20114;-63
2022/03/16 02:59:54;;;;;;;61.33;32.53;;;;;;;;;;2077335;28;20033;-63
2022/03/16 03:01:13;;;;;;;59.60;32.15;;;;;;;;;;2080837;28;20496;-64
2022/03/16 03:02:32;;;;;;;53.30;31.33;;;;;;;;;;2078900;28;20108;-62
2022/03/16 03:03:50;;;;;;;59.20;32.33;;;;;;;;;;2077543;28;20034;-62
2022/03/16 03:05:09;;;;;;;63.65;34.80;;;;;;;;;;2080160;28;20072;-62
2022/03/16 03:06:30;;;;;;;61.63;33.88;;;;;;;;;;2076384;28;20029;-63
2022/03/16 03:07:48;;;;;;;63.05;34.53;;;;;;;;;;2080246;28;20026;-63
2022/03/16 03:09:07;;;;;;;63.95;34.78;;;;;;;;;;2079205;28;20059;-63
2022/03/16 03:10:27;;;;;;;66.25;35.65;;;;;;;;;;2078349;28;20034;-63
2022/03/16 03:11:45;;;;;;;59.50;33.22;;;;;;;;;;2080198;28;20460;-62
2022/03/16 03:13:05;;;;;;;57.80;32.55;;;;;;;;;;2081215;28;20109;-62
2022/03/16 03:14:24;;;;;;;61.03;34.05;;;;;;;;;;2079889;28;20029;-63
2022/03/16 03:15:42;;;;;;;65.72;34.88;;;;;;;;;;2080047;28;20033;-61
2022/03/16 03:17:02;;;;;;;63.72;34.30;;;;;;;;;;2079541;28;20030;-62
2022/03/16 03:18:21;;;;;;;66.20;34.45;;;;;;;;;;2080974;28;20030;-63
2022/03/16 03:19:41;;;;;;;57.08;33.67;;;;;;;;;;2080503;28;20021;-63
2022/03/16 03:21:01;;;;;;;59.10;32.85;;;;;;;;;;2079514;28;20033;-63
2022/03/16 03:22:24;;;;;;;60.30;32.63;;;;;;;;;;2078573;28;20021;-63
2022/03/16 03:23:43;;;;;;;;;;;;;;;;;;2080923;28;20033;-63
2022/03/16 03:25:02;;;;;;;61.50;31.88;;;;;;;;;;2080903;28;19905;-63
2022/03/16 03:26:21;;;;;;;55.00;31.15;;;;;;;;;;2080373;28;20037;-63
2022/03/16 03:27:41;;;;;;;59.92;33.45;;;;;;;;;;2080500;28;20029;-63
2022/03/16 03:29:00;;;;;;;59.60;32.42;;;;;;;;;;2080714;28;20025;-63
2022/03/16 03:30:19;;;;;;;62.47;32.75;;;;;;;;;;2078226;28;20450;-63
2022/03/16 03:31:38;;;;;;;65.88;33.30;;;;;;;;;;2078758;28;20037;-62
2022/03/16 03:32:57;;;;;;;59.70;32.95;;;;;;;;;;2079641;28;20025;-62
2022/03/16 03:34:16;;;;;;;62.05;32.63;;;;;;;;;;2079963;28;20057;-62
2022/03/16 03:35:35;;;;;;;64.97;33.08;;;;;;;;;;2073540;28;20420;-62
2022/03/16 03:36:53;;;;;;;57.55;32.50;;;;;;;;;;2078858;28;20037;-62
2022/03/16 03:38:13;;;;;;;64.75;33.00;;;;;;;;;;2080984;28;20060;-62
2022/03/16 03:39:32;;;;;;;59.10;33.13;;;;;;;;;;2080435;28;20484;-62
2022/03/16 03:40:51;;;;;;;61.60;32.33;;;;;;;;;;2080433;28;20403;-62
2022/03/16 03:42:10;;;;;;;63.05;32.85;;;;;;;;;;2078788;28;20029;-63
2022/03/16 03:43:29;;;;;;;53.35;31.00;;;;;;;;;;2080038;28;20029;-63
2022/03/16 03:44:48;;;;;;;58.47;32.42;;;;;;;;;;2080885;28;20462;-62
2022/03/16 03:46:07;;;;;;;62.50;33.42;;;;;;;;;;2079817;28;20395;-62
2022/03/16 03:47:26;;;;;;;58.65;32.58;;;;;;;;;;2080522;28;20400;-62
2022/03/16 03:48:45;;;;;;;61.05;32.10;;;;;;;;;;2081201;28;20029;-63
2022/03/16 03:50:04;;;;;;;57.38;32.20;;;;;;;;;;2080277;28;20033;-63
2022/03/16 03:51:23;;;;;;;54.75;32.20;;;;;;;;;;2077897;28;20021;-62
2022/03/16 03:52:42;;;;;;;59.85;31.98;;;;;;;;;;2079917;28;20056;-63
2022/03/16 03:54:01;;;;;;;64.25;34.67;;;;;;;;;;2078607;28;20057;-63
2022/03/16 03:55:20;;;;;;;67.78;34.92;;;;;;;;;;2080151;28;20033;-63
2022/03/16 03:56:39;;;;;;;62.80;34.08;;;;;;;;;;2078123;28;20113;-63
2022/03/16 03:57:58;;;;;;;61.60;32.63;;;;;;;;;;2079047;28;20033;-63
2022/03/16 03:59:17;;;;;;;69.82;35.65;;;;;;;;;;2079849;28;20029;-63
2022/03/16 04:00:36;;;;;;;65.63;34.97;;;;;;;;;;2079900;28;20104;-63
2022/03/16 04:01:55;;;;;;;61.20;33.50;;;;;;;;;;2078526;28;20033;-63
2022/03/16 04:03:14;;;;;;;55.17;32.25;;;;;;;;;;2080637;28;20034;-63
2022/03/16 04:04:33;;;;;;;62.47;34.05;;;;;;;;;;2079586;28;20029;-62
2022/03/16 04:05:51;;;;;;;62.55;33.25;;;;;;;;;;2079243;28;20025;-63
2022/03/16 04:07:10;;;;;;;55.83;31.52;;;;;;;;;;2080634;28;20471;-62
2022/03/16 04:08:29;;;;;;;68.25;34.08;;;;;;;;;;2081513;28;20021;-62
2022/03/16 04:09:50;;;;;;;63.20;33.55;;;;;;;;;;2080312;28;20484;-64
2022/03/16 04:11:09;;;;;;;65.68;33.03;;;;;;;;;;2079595;28;20471;-61
2022/03/16 04:12:28;;;;;;;57.45;31.42;;;;;;;;;;2078335;28;20022;-63
2022/03/16 04:13:47;;;;;;;58.75;32.38;;;;;;;;;;2080624;28;20029;-62
2022/03/16 04:15:06;;;;;;;61.15;33.63;;;;;;;;;;2080608;28;20113;-63
2022/03/16 04:16:25;;;;;;;62.05;32.63;;;;;;;;;;2078016;28;20030;-63
2022/03/16 04:17:44;;;;;;;63.47;33.45;;;;;;;;;;2077809;28;20037;-63
2022/03/16 04:19:02;;;;;;;59.53;32.28;;;;;;;;;;2079697;28;20025;-62
2022/03/16 04:20:21;;;;;;;61.45;33.33;;;;;;;;;;2078683;28;20033;-62
2022/03/16 04:21:40;;;;;;;62.47;33.33;;;;;;;;;;2079975;28;20049;-62
2022/03/16 04:22:59;;;;;;;62.25;34.20;;;;;;;;;;2080850;28;20030;-63
2022/03/16 04:24:18;;;;;;;65.90;34.55;;;;;;;;;;2079765;28;20025;-62
2022/03/16 04:25:37;;;;;;;64.35;33.33;;;;;;;;;;2078927;28;20029;-62
2022/03/16 04:26:56;;;;;;;64.93;33.90;;;;;;;;;;2077977;28;20436;-63
2022/03/16 04:28:15;;;;;;;59.72;32.22;;;;;;;;;;2080419;28;20037;-63
2022/03/16 04:29:34;;;;;;;64.18;34.10;;;;;;;;;;2080437;28;20026;-62
2022/03/16 04:30:53;;;;;;;58.88;33.03;;;;;;;;;;2076474;28;20120;-63
2022/03/16 04:32:12;;;;;;;62.83;33.70;;;;;;;;;;2077781;28;20073;-63
2022/03/16 04:33:31;;;;;;;62.13;33.25;;;;;;;;;;2078877;28;20484;-63
2022/03/16 04:34:50;;;;;;;57.63;32.83;;;;;;;;;;2080064;28;20034;-63
2022/03/16 04:36:09;;;;;;;64.18;34.33;;;;;;;;;;2080343;28;20022;-63
2022/03/16 04:37:28;;;;;;;64.03;33.47;;;;;;;;;;2080093;28;20042;-63
2022/03/16 04:38:47;;;;;;;62.03;33.35;;;;;;;;;;2079830;28;20034;-62
2022/03/16 04:40:06;;;;;;;63.65;32.90;;;;;;;;;;2080181;28;20042;-63
2022/03/16 04:41:25;;;;;;;61.50;32.97;;;;;;;;;;2079351;28;20037;-63
2022/03/16 04:42:44;;;;;;;65.60;33.10;;;;;;;;;;2078134;28;20033;-63
2022/03/16 04:44:03;;;;;;;57.33;33.42;;;;;;;;;;2080384;28;20030;-63
2022/03/16 04:45:22;;;;;;;56.58;31.83;;;;;;;;;;2080171;28;20025;-61
2022/03/16 04:46:41;;;;;;;61.38;33.15;;;;;;;;;;2080169;28;20034;-63
2022/03/16 04:48:00;;;;;;;59.10;33.38;;;;;;;;;;2080739;28;20033;-62
2022/03/16 04:49:19;;;;;;;63.35;32.70;;;;;;;;;;2080334;28;20030;-64
2022/03/16 04:50:38;;;;;;;62.08;32.92;;;;;;;;;;2079122;28;20033;-63
2022/03/16 04:51:57;;;;;;;66.95;33.72;;;;;;;;;;2076462;28;20108;-63
2022/03/16 04:53:16;;;;;;;59.58;31.67;;;;;;;;;;2078153;28;20416;-63
2022/03/16 04:54:35;;;;;;;58.67;30.67;;;;;;;;;;2077973;28;20037;-62
2022/03/16 04:55:54;;;;;;;58.38;32.30;;;;;;;;;;2080878;28;20492;-63
2022/03/16 04:57:13;;;;;;;56.33;31.60;;;;;;;;;;2079212;28;20029;-63
2022/03/16 04:58:32;;;;;;;58.83;32.45;;;;;;;;;;2079275;28;20033;-62
2022/03/16 04:59:51;;;;;;;59.55;32.00;;;;;;;;;;2080326;28;20144;-62
2022/03/16 05:01:10;;;;;;;58.03;31.95;;;;;;;;;;2080300;28;20120;-63
2022/03/16 05:02:29;;;;;;;56.60;30.98;;;;;;;;;;2077107;28;20025;-62
2022/03/16 05:03:48;;;;;;;54.90;31.58;;;;;;;;;;2079318;28;20519;-63
2022/03/16 05:05:08;;;;;;;56.17;31.02;;;;;;;;;;2078325;28;20487;-64
2022/03/16 05:06:27;;;;;;;58.78;31.73;;;;;;;;;;2079189;28;20025;-63
2022/03/16 05:07:46;;;;;;;57.10;31.25;;;;;;;;;;2078086;28;20029;-64
2022/03/16 05:09:05;;;;;;;62.70;31.23;;;;;;;;;;2077315;28;20496;-61
2022/03/16 05:10:24;;;;;;;58.28;31.35;;;;;;;;;;2078832;28;20076;-64
2022/03/16 05:11:44;;;;;;;57.72;32.25;;;;;;;;;;2079739;28;20033;-62
2022/03/16 05:13:03;;;;;;;59.17;31.88;;;;;;;;;;2078396;28;20021;-60
2022/03/16 05:14:22;;;;;;;59.55;31.23;;;;;;;;;;2078112;28;20033;-62
2022/03/16 05:15:41;;;;;;;59.53;32.60;;;;;;;;;;2078216;28;20022;-62
2022/03/16 05:17:00;;;;;;;60.20;31.90;;;;;;;;;;2079806;28;20480;-61
2022/03/16 05:18:19;;;;;;;58.00;32.03;;;;;;;;;;2080057;28;20037;-62
2022/03/16 05:19:38;;;;;;;69.82;32.47;;;;;;;;;;2080497;28;20396;-62
2022/03/16 05:20:57;;;;;;;58.78;32.40;;;;;;;;;;2079430;28;20029;-61
2022/03/16 05:22:16;;;;;;;61.10;32.35;;;;;;;;;;2078402;28;20034;-62
2022/03/16 05:23:35;;;;;;;61.13;32.38;;;;;;;;;;2078597;28;20076;-62
2022/03/16 05:24:54;;;;;;;62.25;32.47;;;;;;;;;;2074082;28;20029;-61
2022/03/16 05:26:13;;;;;;;61.45;32.70;;;;;;;;;;2078805;28;20033;-62
2022/03/16 05:27:32;;;;;;;60.50;31.05;;;;;;;;;;2079621;28;20509;-62
2022/03/16 05:28:52;;;;;;;58.13;31.92;;;;;;;;;;2079004;28;20042;-62
2022/03/16 05:30:12;;;;;;;62.70;31.67;;;;;;;;;;2078936;28;20025;-62
2022/03/16 05:31:31;;;;;;;65.07;33.58;;;;;;;;;;2077263;28;20109;-62
2022/03/16 05:32:51;;;;;;;66.40;32.40;;;;;;;;;;2077123;28;20116;-59
2022/03/16 05:34:10;;;;;;;60.30;32.25;;;;;;;;;;2080577;28;20018;-62
2022/03/16 05:35:30;;;;;;;63.90;32.42;;;;;;;;;;2079727;28;20030;-62
2022/03/16 05:36:49;;;;;;;59.67;32.58;;;;;;;;;;2079240;28;20029;-61
2022/03/16 05:38:08;;;;;;;59.15;31.77;;;;;;;;;;2078381;28;20042;-62
2022/03/16 05:39:27;;;;;;;52.28;29.45;;;;;;;;;;2078277;28;20025;-61
2022/03/16 05:40:46;;;;;;;62.05;30.90;;;;;;;;;;2074665;28;20029;-62
2022/03/16 05:42:05;;;;;;;62.13;32.38;;;;;;;;;;2077049;28;20038;-62
2022/03/16 05:43:24;;;;;;;65.88;31.70;;;;;;;;;;2078415;28;20033;-61
2022/03/16 05:44:43;;;;;;;58.67;32.35;;;;;;;;;;2080934;28;20391;-62
2022/03/16 05:46:02;;;;;;;63.45;30.98;;;;;;;;;;2079802;28;20041;-62
2022/03/16 05:47:24;;;;;;;52.58;30.70;;;;;;;;;;2078251;28;20030;-62
2022/03/16 05:48:43;;;;;;;67.00;32.75;;;;;;;;;;2078920;28;20034;-62
2022/03/16 05:50:02;;;;;;;58.70;33.22;;;;;;;;;;2079814;28;20034;-62
2022/03/16 05:51:21;;;;;;;54.85;30.90;;;;;;;;;;2079451;28;20021;-62
2022/03/16 05:52:41;;;;;;;58.88;32.63;;;;;;;;;;2074935;28;20124;-62
2022/03/16 05:54:00;;;;;;;71.47;34.03;;;;;;;;;;2077036;28;20392;-62
2022/03/16 05:55:18;;;;;;;58.80;31.50;;;;;;;;;;2076579;28;20081;-60
2022/03/16 05:56:37;;;;;;;64.95;31.95;;;;;;;;;;2076943;28;20416;-62
2022/03/16 05:57:56;;;;;;;57.63;32.40;;;;;;;;;;2077061;28;20575;-62
2022/03/16 05:59:15;;;;;;;63.78;34.65;;;;;;;;;;2079912;28;20480;-61
2022/03/16 06:00:35;;;;;;;59.45;34.25;;;;;;;;;;2078252;28;20029;-61
2022/03/16 06:01:54;;;;;;;57.15;31.40;;;;;;;;;;2074854;28;20025;-61
2022/03/16 06:03:13;;;;;;;60.63;31.23;;;;;;;;;;2076373;28;20026;-62
2022/03/16 06:04:32;;;;;;;62.90;33.20;;;;;;;;;;2078902;28;20029;-62
2022/03/16 06:05:51;;;;;;;59.78;32.63;;;;;;;;;;2070123;28;20034;-62
2022/03/16 06:07:10;;;;;;;59.58;31.73;;;;;;;;;;2074215;28;21094;-62
2022/03/16 06:08:29;;;;;;;68.95;35.25;;;;;;;;;;2076850;28;20037;-62
2022/03/16 06:09:48;;;;;;;58.58;32.83;;;;;;;;;;2077240;28;20398;-62
2022/03/16 06:11:07;;;;;;;60.33;32.42;;;;;;;;;;2075729;28;20396;-61
2022/03/16 06:12:26;;;;;;;59.58;31.90;;;;;;;;;;2078101;28;20117;-61
2022/03/16 06:13:45;;;;;;;60.97;31.77;;;;;;;;;;2076582;28;20026;-63
2022/03/16 06:15:04;;;;;;;58.08;32.50;;;;;;;;;;2080038;28;20029;-61
2022/03/16 06:16:22;;;;;;;57.78;31.48;;;;;;;;;;2073566;28;20030;-61
2022/03/16 06:17:41;;;;;;;60.78;32.17;;;;;;;;;;2078814;28;20041;-62
2022/03/16 06:19:00;;;;;;;58.47;32.58;;;;;;;;;;2078282;28;20033;-62
2022/03/16 06:20:19;;;;;;;64.13;34.08;;;;;;;;;;2079625;28;20492;-62
2022/03/16 06:21:38;;;;;;;65.97;33.90;;;;;;;;;;2079263;28;20029;-64
2022/03/16 06:22:57;;;;;;;81.78;36.90;;;;;;;;;;2078906;28;20476;-60
2022/03/16 06:24:16;;;;;;;70.88;38.40;;;;;;;;;;2078360;28;20478;-62
2022/03/16 06:25:35;;;;;;;84.70;38.78;;;;;;;;;;2075846;28;20026;-62
2022/03/16 06:26:54;;;;;;;70.85;35.15;;;;;;;;;;2081921;28;20029;-62
2022/03/16 06:28:13;;;;;;;60.17;33.55;;;;;;;;;;2080384;28;20041;-60
2022/03/16 06:29:32;;;;;;;75.22;34.70;;;;;;;;;;2079711;28;20038;-63
2022/03/16 06:30:51;;;;;;;66.72;34.42;;;;;;;;;;2080466;28;20038;-63
2022/03/16 06:32:10;;;;;;;68.53;34.30;;;;;;;;;;2078208;28;20488;-62
2022/03/16 06:33:30;;;;;;;69.95;34.35;;;;;;;;;;2079657;28;20455;-63
2022/03/16 06:34:48;;;;;;;71.10;33.42;;;;;;;;;;2080074;28;20033;-63
2022/03/16 06:36:07;;;;;;;58.92;32.72;;;;;;;;;;2079363;28;20033;-63
2022/03/16 06:37:26;;;;;;;63.50;32.92;;;;;;;;;;2081001;28;20436;-64
2022/03/16 06:38:45;;;;;;;62.05;32.55;;;;;;;;;;2079589;28;20352;-63
2022/03/16 06:40:07;;;;;;;56.28;31.55;;;;;;;;;;2080310;28;20025;-62
2022/03/16 06:41:26;;;;;;;63.28;32.22;;;;;;;;;;2081133;28;20041;-62
2022/03/16 06:43:04;;;;;;;57.50;31.38;;;;;;;;;;2079086;28;20041;-62
2022/03/16 06:44:23;;;;;;;60.35;32.50;;;;;;;;;;2077640;28;20037;-62
2022/03/16 06:45:42;;;;;;;59.65;32.35;;;;;;;;;;2081187;28;20104;-62
2022/03/16 06:47:01;;;;;;;62.58;31.77;;;;;;;;;;2081895;28;20648;-61
2022/03/16 06:48:23;;;;;;;65.60;33.85;;;;;;;;;;2078666;28;20396;-61
2022/03/16 06:49:42;;;;;;;67.65;35.38;;;;;;;;;;2077452;28;20049;-61
2022/03/16 06:51:01;;;;;;;71.82;34.30;;;;;;;;;;2080748;28;20022;-61
2022/03/16 06:52:20;;;;;;;65.65;33.28;;;;;;;;;;2080398;28;20029;-61
2022/03/16 06:53:39;;;;;;;63.65;33.40;;;;;;;;;;2081519;28;20456;-61
2022/03/16 06:54:58;;;;;;;67.55;33.38;;;;;;;;;;2080115;28;20480;-62
2022/03/16 06:56:17;;;;;;;68.97;36.10;;;;;;;;;;2080488;28;20104;-62
2022/03/16 06:57:36;;;;;;;63.22;35.00;;;;;;;;;;2078787;28;20068;-62
2022/03/16 06:58:55;;;;;;;67.70;35.65;;;;;;;;;;2078015;28;20483;-61
2022/03/16 07:00:15;;;;;;;60.63;33.38;;;;;;;;;;2081186;28;20029;-62
2022/03/16 07:01:34;;;;;;;58.47;32.40;;;;;;;;;;2080656;28;20030;-62
2022/03/16 07:02:53;;;;;;;61.30;33.13;;;;;;;;;;2078585;28;20045;-61
2022/03/16 07:04:12;;;;;;;59.33;31.48;;;;;;;;;;2079974;28;20061;-62
2022/03/16 07:05:32;;;;;;;68.00;32.63;;;;;;;;;;2080248;28;20084;-62
2022/03/16 07:06:51;;;;;;;58.25;31.70;;;;;;;;;;2080794;28;20041;-62
2022/03/16 07:08:11;;;;;;;57.72;32.08;;;;;;;;;;2078254;28;21482;-62
2022/03/16 07:09:32;;;;;;;56.55;30.25;;;;;;;;;;2080150;28;20116;-61
2022/03/16 07:10:50;;;;;;;56.15;29.45;;;;;;;;;;2080563;28;20057;-62
2022/03/16 07:12:09;;;;;;;58.33;29.85;;;;;;;;;;2077237;28;20042;-63
2022/03/16 07:13:28;;;;;;;55.08;29.88;;;;;;;;;;2079095;28;20056;-61
2022/03/16 07:14:47;;;;;;;53.22;29.42;;;;;;;;;;2080430;28;20060;-59
2022/03/16 07:16:07;;;;;;;58.85;30.88;;;;;;;;;;2079313;28;20029;-61
2022/03/16 07:17:26;;;;;;;61.38;31.10;;;;;;;;;;2080210;28;20033;-61
2022/03/16 07:18:44;;;;;;;55.83;30.00;;;;;;;;;;2079863;28;20061;-61
2022/03/16 07:20:06;;;;;;;66.18;30.85;;;;;;;;;;2078634;28;20029;-61
2022/03/16 07:21:25;;;;;;;62.67;29.85;;;;;;;;;;2079081;28;20484;-61
2022/03/16 07:22:44;;;;;;;71.75;31.20;;;;;;;;;;2078313;28;20033;-61
2022/03/16 07:24:03;;;;;;;64.47;32.45;;;;;;;;;;2079726;28;20029;-62
2022/03/16 07:25:22;;;;;;;59.97;32.00;;;;;;;;;;2079380;28;20033;-61
2022/03/16 07:26:42;;;;;;;63.10;30.77;;;;;;;;;;2081124;28;20392;-62
2022/03/16 07:28:01;;;;;;;50.97;29.50;;;;;;;;;;2080941;28;20033;-61
2022/03/16 07:29:20;;;;;;;60.78;31.42;;;;;;;;;;2079936;28;20041;-61
2022/03/16 07:30:40;;;;;;;57.53;30.45;;;;;;;;;;2078504;28;20029;-59
2022/03/16 07:31:59;;;;;;;59.40;30.33;;;;;;;;;;2078411;28;20105;-61
2022/03/16 07:33:18;;;;;;;64.22;31.38;;;;;;;;;;2079176;28;20045;-62
2022/03/16 07:34:38;;;;;;;62.03;32.70;;;;;;;;;;2079379;28;20029;-62
2022/03/16 07:35:57;;;;;;;54.38;30.70;;;;;;;;;;2078658;28;20126;-62
2022/03/16 07:37:16;;;;;;;60.80;31.63;;;;;;;;;;2079652;28;20512;-62
2022/03/16 07:38:35;;;;;;;59.35;30.33;;;;;;;;;;2078162;28;20484;-62
2022/03/16 07:39:54;;;;;;;63.85;31.17;;;;;;;;;;2078962;28;20475;-62
2022/03/16 07:41:15;;;;;;;55.75;30.67;;;;;;;;;;2081053;28;20037;-62